sensor_id;sensor_type;location;lat;lon;timestamp;P1;durP1;ratioP1;P2;durP2;ratioP2
22967;SDS011;11650;48.106;-1.696;2022-12-18T00:02:00;49.37;;;23.47;;
22967;SDS011;11650;48.106;-1.696;2022-12-18T00:04:26;50.50;;;23.53;;
22967;SDS011;11650;48.106;-1.696;2022-12-18T00:06:53;56.00;;;24.27;;
22967;SDS011;11650;48.106;-1.696;2022-12-18T00:09:19;49.87;;;23.37;;
22967;SDS011;11650;48.106;-1.696;2022-12-18T00:11:45;50.50;;;22.53;;
22967;SDS011;11650;48.106;-1.696;2022-12-18T00:14:11;51.83;;;25.03;;
22967;SDS011;11650;48.106;-1.696;2022-12-18T00:16:37;49.53;;;24.80;;
22967;SDS011;11650;48.106;-1.696;2022-12-18T00:19:05;50.20;;;23.73;;
22967;SDS011;11650;48.106;-1.696;2022-12-18T00:21:32;54.57;;;24.50;;
22967;SDS011;11650;48.106;-1.696;2022-12-18T00:23:59;50.80;;;24.20;;
22967;SDS011;11650;48.106;-1.696;2022-12-18T00:26:26;55.83;;;24.87;;
22967;SDS011;11650;48.106;-1.696;2022-12-18T00:28:54;55.77;;;25.60;;
22967;SDS011;11650;48.106;-1.696;2022-12-18T00:31:23;54.70;;;25.40;;
22967;SDS011;11650;48.106;-1.696;2022-12-18T00:33:49;53.37;;;24.33;;
22967;SDS011;11650;48.106;-1.696;2022-12-18T00:36:16;52.93;;;23.23;;
22967;SDS011;11650;48.106;-1.696;2022-12-18T00:38:45;51.10;;;24.03;;
22967;SDS011;11650;48.106;-1.696;2022-12-18T00:41:12;48.30;;;23.10;;
22967;SDS011;11650;48.106;-1.696;2022-12-18T00:43:38;48.67;;;22.60;;
22967;SDS011;11650;48.106;-1.696;2022-12-18T00:46:04;46.70;;;23.30;;
22967;SDS011;11650;48.106;-1.696;2022-12-18T00:48:30;47.67;;;23.17;;
22967;SDS011;11650;48.106;-1.696;2022-12-18T00:50:56;52.63;;;24.93;;
22967;SDS011;11650;48.106;-1.696;2022-12-18T00:53:22;48.37;;;23.47;;
22967;SDS011;11650;48.106;-1.696;2022-12-18T00:55:48;49.20;;;23.43;;
22967;SDS011;11650;48.106;-1.696;2022-12-18T00:58:15;46.20;;;22.10;;
22967;SDS011;11650;48.106;-1.696;2022-12-18T01:00:41;46.93;;;23.47;;
22967;SDS011;11650;48.106;-1.696;2022-12-18T01:03:07;46.80;;;21.17;;
22967;SDS011;11650;48.106;-1.696;2022-12-18T01:05:34;51.23;;;23.60;;
22967;SDS011;11650;48.106;-1.696;2022-12-18T01:08:03;51.83;;;24.10;;
22967;SDS011;11650;48.106;-1.696;2022-12-18T01:10:29;49.23;;;23.13;;
22967;SDS011;11650;48.106;-1.696;2022-12-18T01:12:54;48.97;;;22.97;;
22967;SDS011;11650;48.106;-1.696;2022-12-18T01:15:20;49.80;;;22.57;;
22967;SDS011;11650;48.106;-1.696;2022-12-18T01:17:46;48.60;;;23.47;;
22967;SDS011;11650;48.106;-1.696;2022-12-18T01:20:12;50.87;;;23.40;;
22967;SDS011;11650;48.106;-1.696;2022-12-18T01:22:38;47.90;;;24.33;;
22967;SDS011;11650;48.106;-1.696;2022-12-18T01:25:04;55.03;;;23.87;;
22967;SDS011;11650;48.106;-1.696;2022-12-18T01:27:30;50.10;;;23.80;;
22967;SDS011;11650;48.106;-1.696;2022-12-18T01:29:57;49.33;;;24.53;;
22967;SDS011;11650;48.106;-1.696;2022-12-18T01:32:23;48.83;;;22.93;;
22967;SDS011;11650;48.106;-1.696;2022-12-18T01:34:49;52.43;;;24.60;;
22967;SDS011;11650;48.106;-1.696;2022-12-18T01:37:14;53.00;;;25.03;;
22967;SDS011;11650;48.106;-1.696;2022-12-18T01:39:40;48.53;;;23.50;;
22967;SDS011;11650;48.106;-1.696;2022-12-18T01:42:12;51.00;;;22.93;;
22967;SDS011;11650;48.106;-1.696;2022-12-18T01:50:28;48.83;;;24.23;;
22967;SDS011;11650;48.106;-1.696;2022-12-18T01:53:10;52.97;;;23.07;;
22967;SDS011;11650;48.106;-1.696;2022-12-18T01:55:45;46.10;;;22.63;;
22967;SDS011;11650;48.106;-1.696;2022-12-18T01:58:15;53.80;;;25.13;;
22967;SDS011;11650;48.106;-1.696;2022-12-18T02:00:41;50.73;;;23.30;;
22967;SDS011;11650;48.106;-1.696;2022-12-18T02:03:07;50.80;;;24.13;;
22967;SDS011;11650;48.106;-1.696;2022-12-18T02:05:39;53.83;;;23.17;;
22967;SDS011;11650;48.106;-1.696;2022-12-18T02:19:04;50.57;;;24.00;;
22967;SDS011;11650;48.106;-1.696;2022-12-18T02:24:35;51.87;;;24.23;;
22967;SDS011;11650;48.106;-1.696;2022-12-18T02:27:13;53.60;;;25.20;;
22967;SDS011;11650;48.106;-1.696;2022-12-18T02:29:48;51.30;;;22.50;;
22967;SDS011;11650;48.106;-1.696;2022-12-18T02:32:18;51.70;;;22.77;;
22967;SDS011;11650;48.106;-1.696;2022-12-18T02:34:49;54.47;;;24.37;;
22967;SDS011;11650;48.106;-1.696;2022-12-18T02:37:17;50.27;;;23.83;;
22967;SDS011;11650;48.106;-1.696;2022-12-18T02:39:46;51.93;;;24.10;;
22967;SDS011;11650;48.106;-1.696;2022-12-18T02:42:14;50.57;;;23.97;;
22967;SDS011;11650;48.106;-1.696;2022-12-18T02:44:42;51.40;;;23.43;;
22967;SDS011;11650;48.106;-1.696;2022-12-18T02:47:10;48.97;;;23.30;;
22967;SDS011;11650;48.106;-1.696;2022-12-18T02:55:12;51.10;;;24.87;;
22967;SDS011;11650;48.106;-1.696;2022-12-18T02:57:42;52.80;;;24.03;;
22967;SDS011;11650;48.106;-1.696;2022-12-18T03:00:18;49.87;;;23.70;;
22967;SDS011;11650;48.106;-1.696;2022-12-18T03:05:21;54.37;;;24.03;;
22967;SDS011;11650;48.106;-1.696;2022-12-18T03:08:25;49.87;;;24.13;;
22967;SDS011;11650;48.106;-1.696;2022-12-18T03:10:49;49.43;;;23.60;;
22967;SDS011;11650;48.106;-1.696;2022-12-18T03:13:28;55.10;;;24.33;;
22967;SDS011;11650;48.106;-1.696;2022-12-18T03:16:24;51.07;;;23.77;;
22967;SDS011;11650;48.106;-1.696;2022-12-18T03:18:55;47.60;;;21.90;;
22967;SDS011;11650;48.106;-1.696;2022-12-18T03:21:37;51.37;;;23.63;;
22967;SDS011;11650;48.106;-1.696;2022-12-18T03:24:14;50.77;;;24.17;;
22967;SDS011;11650;48.106;-1.696;2022-12-18T03:26:43;52.20;;;23.00;;
22967;SDS011;11650;48.106;-1.696;2022-12-18T03:29:17;48.00;;;22.47;;
22967;SDS011;11650;48.106;-1.696;2022-12-18T03:31:50;51.27;;;23.97;;
22967;SDS011;11650;48.106;-1.696;2022-12-18T03:34:21;47.40;;;22.80;;
22967;SDS011;11650;48.106;-1.696;2022-12-18T03:36:51;46.07;;;22.30;;
22967;SDS011;11650;48.106;-1.696;2022-12-18T03:39:17;45.77;;;22.00;;
22967;SDS011;11650;48.106;-1.696;2022-12-18T03:41:44;46.70;;;22.53;;
22967;SDS011;11650;48.106;-1.696;2022-12-18T03:49:48;47.53;;;22.07;;
22967;SDS011;11650;48.106;-1.696;2022-12-18T03:54:44;43.73;;;22.43;;
22967;SDS011;11650;48.106;-1.696;2022-12-18T03:57:16;44.87;;;22.80;;
22967;SDS011;11650;48.106;-1.696;2022-12-18T03:59:47;45.53;;;21.83;;
22967;SDS011;11650;48.106;-1.696;2022-12-18T04:02:16;43.20;;;21.73;;
22967;SDS011;11650;48.106;-1.696;2022-12-18T04:04:43;43.73;;;21.30;;
22967;SDS011;11650;48.106;-1.696;2022-12-18T04:07:11;44.67;;;22.33;;
22967;SDS011;11650;48.106;-1.696;2022-12-18T04:09:39;45.77;;;22.93;;
22967;SDS011;11650;48.106;-1.696;2022-12-18T04:12:06;45.13;;;21.27;;
22967;SDS011;11650;48.106;-1.696;2022-12-18T04:14:33;45.27;;;22.47;;
22967;SDS011;11650;48.106;-1.696;2022-12-18T04:17:00;45.63;;;22.30;;
22967;SDS011;11650;48.106;-1.696;2022-12-18T04:19:27;41.77;;;21.07;;
22967;SDS011;11650;48.106;-1.696;2022-12-18T04:21:53;50.83;;;23.17;;
22967;SDS011;11650;48.106;-1.696;2022-12-18T04:24:18;42.57;;;21.77;;
22967;SDS011;11650;48.106;-1.696;2022-12-18T04:26:44;43.10;;;20.53;;
22967;SDS011;11650;48.106;-1.696;2022-12-18T04:29:10;44.27;;;20.50;;
22967;SDS011;11650;48.106;-1.696;2022-12-18T04:31:36;43.23;;;21.27;;
22967;SDS011;11650;48.106;-1.696;2022-12-18T04:34:01;49.43;;;21.33;;
22967;SDS011;11650;48.106;-1.696;2022-12-18T04:36:27;46.73;;;20.47;;
22967;SDS011;11650;48.106;-1.696;2022-12-18T04:38:53;44.87;;;21.60;;
22967;SDS011;11650;48.106;-1.696;2022-12-18T04:41:19;44.80;;;21.60;;
22967;SDS011;11650;48.106;-1.696;2022-12-18T04:43:45;43.90;;;20.93;;
22967;SDS011;11650;48.106;-1.696;2022-12-18T04:46:10;44.90;;;21.97;;
22967;SDS011;11650;48.106;-1.696;2022-12-18T04:48:36;43.57;;;21.57;;
22967;SDS011;11650;48.106;-1.696;2022-12-18T04:51:03;43.00;;;21.67;;
22967;SDS011;11650;48.106;-1.696;2022-12-18T04:53:29;43.30;;;20.80;;
22967;SDS011;11650;48.106;-1.696;2022-12-18T04:56:08;44.63;;;21.40;;
22967;SDS011;11650;48.106;-1.696;2022-12-18T04:58:36;44.00;;;21.57;;
22967;SDS011;11650;48.106;-1.696;2022-12-18T05:01:02;46.10;;;21.13;;
22967;SDS011;11650;48.106;-1.696;2022-12-18T05:03:29;43.67;;;21.93;;
22967;SDS011;11650;48.106;-1.696;2022-12-18T05:05:54;41.57;;;20.10;;
22967;SDS011;11650;48.106;-1.696;2022-12-18T05:08:20;44.47;;;22.40;;
22967;SDS011;11650;48.106;-1.696;2022-12-18T05:10:46;43.50;;;21.67;;
22967;SDS011;11650;48.106;-1.696;2022-12-18T05:13:11;41.27;;;21.07;;
22967;SDS011;11650;48.106;-1.696;2022-12-18T05:15:37;45.60;;;21.67;;
22967;SDS011;11650;48.106;-1.696;2022-12-18T05:18:03;41.83;;;20.60;;
22967;SDS011;11650;48.106;-1.696;2022-12-18T05:20:29;38.80;;;20.77;;
22967;SDS011;11650;48.106;-1.696;2022-12-18T05:22:55;46.20;;;21.60;;
22967;SDS011;11650;48.106;-1.696;2022-12-18T05:25:21;44.53;;;21.03;;
22967;SDS011;11650;48.106;-1.696;2022-12-18T05:27:47;43.07;;;21.17;;
22967;SDS011;11650;48.106;-1.696;2022-12-18T05:30:13;43.23;;;20.93;;
22967;SDS011;11650;48.106;-1.696;2022-12-18T05:32:40;44.17;;;21.70;;
22967;SDS011;11650;48.106;-1.696;2022-12-18T05:35:07;39.57;;;20.20;;
22967;SDS011;11650;48.106;-1.696;2022-12-18T05:37:34;41.93;;;20.57;;
22967;SDS011;11650;48.106;-1.696;2022-12-18T05:40:00;40.07;;;20.30;;
22967;SDS011;11650;48.106;-1.696;2022-12-18T05:42:26;40.83;;;20.37;;
22967;SDS011;11650;48.106;-1.696;2022-12-18T05:44:51;44.00;;;21.03;;
22967;SDS011;11650;48.106;-1.696;2022-12-18T05:47:17;40.30;;;20.33;;
22967;SDS011;11650;48.106;-1.696;2022-12-18T05:49:42;42.17;;;20.73;;
22967;SDS011;11650;48.106;-1.696;2022-12-18T05:52:08;39.73;;;19.80;;
22967;SDS011;11650;48.106;-1.696;2022-12-18T05:54:34;41.03;;;21.37;;
22967;SDS011;11650;48.106;-1.696;2022-12-18T05:56:59;39.97;;;20.60;;
22967;SDS011;11650;48.106;-1.696;2022-12-18T05:59:25;42.47;;;21.03;;
22967;SDS011;11650;48.106;-1.696;2022-12-18T06:01:51;42.30;;;21.07;;
22967;SDS011;11650;48.106;-1.696;2022-12-18T06:04:16;39.73;;;18.77;;
22967;SDS011;11650;48.106;-1.696;2022-12-18T06:06:42;41.60;;;20.07;;
22967;SDS011;11650;48.106;-1.696;2022-12-18T06:09:07;44.10;;;22.60;;
22967;SDS011;11650;48.106;-1.696;2022-12-18T06:11:35;41.27;;;20.50;;
22967;SDS011;11650;48.106;-1.696;2022-12-18T06:14:02;43.83;;;21.73;;
22967;SDS011;11650;48.106;-1.696;2022-12-18T06:16:29;42.23;;;20.37;;
22967;SDS011;11650;48.106;-1.696;2022-12-18T06:18:58;42.10;;;20.70;;
22967;SDS011;11650;48.106;-1.696;2022-12-18T06:21:25;46.40;;;21.97;;
22967;SDS011;11650;48.106;-1.696;2022-12-18T06:23:51;40.13;;;21.13;;
22967;SDS011;11650;48.106;-1.696;2022-12-18T06:26:17;40.93;;;20.90;;
22967;SDS011;11650;48.106;-1.696;2022-12-18T06:28:42;43.27;;;21.53;;
22967;SDS011;11650;48.106;-1.696;2022-12-18T06:31:08;41.67;;;20.53;;
22967;SDS011;11650;48.106;-1.696;2022-12-18T06:33:35;46.00;;;21.37;;
22967;SDS011;11650;48.106;-1.696;2022-12-18T06:36:02;44.93;;;20.87;;
22967;SDS011;11650;48.106;-1.696;2022-12-18T06:38:40;43.10;;;21.47;;
22967;SDS011;11650;48.106;-1.696;2022-12-18T06:41:10;39.37;;;21.00;;
22967;SDS011;11650;48.106;-1.696;2022-12-18T06:43:43;42.57;;;21.17;;
22967;SDS011;11650;48.106;-1.696;2022-12-18T06:46:09;41.80;;;20.63;;
22967;SDS011;11650;48.106;-1.696;2022-12-18T06:48:35;39.77;;;20.53;;
22967;SDS011;11650;48.106;-1.696;2022-12-18T06:51:01;41.37;;;20.87;;
22967;SDS011;11650;48.106;-1.696;2022-12-18T06:53:27;40.77;;;19.47;;
22967;SDS011;11650;48.106;-1.696;2022-12-18T06:55:52;45.30;;;21.67;;
22967;SDS011;11650;48.106;-1.696;2022-12-18T06:58:24;43.63;;;22.03;;
22967;SDS011;11650;48.106;-1.696;2022-12-18T07:00:50;41.63;;;21.07;;
22967;SDS011;11650;48.106;-1.696;2022-12-18T07:03:16;42.00;;;21.53;;
22967;SDS011;11650;48.106;-1.696;2022-12-18T07:05:42;41.77;;;21.70;;
22967;SDS011;11650;48.106;-1.696;2022-12-18T07:08:08;42.10;;;21.30;;
22967;SDS011;11650;48.106;-1.696;2022-12-18T07:10:33;42.10;;;21.93;;
22967;SDS011;11650;48.106;-1.696;2022-12-18T07:13:05;42.13;;;21.33;;
22967;SDS011;11650;48.106;-1.696;2022-12-18T07:15:31;45.47;;;21.77;;
22967;SDS011;11650;48.106;-1.696;2022-12-18T07:17:56;41.67;;;21.73;;
22967;SDS011;11650;48.106;-1.696;2022-12-18T07:20:22;44.40;;;22.90;;
22967;SDS011;11650;48.106;-1.696;2022-12-18T07:22:47;46.07;;;23.13;;
22967;SDS011;11650;48.106;-1.696;2022-12-18T07:25:13;47.67;;;22.87;;
22967;SDS011;11650;48.106;-1.696;2022-12-18T07:27:39;45.87;;;22.60;;
22967;SDS011;11650;48.106;-1.696;2022-12-18T07:30:05;44.67;;;22.83;;
22967;SDS011;11650;48.106;-1.696;2022-12-18T07:32:31;49.57;;;23.10;;
22967;SDS011;11650;48.106;-1.696;2022-12-18T07:34:56;47.13;;;21.93;;
22967;SDS011;11650;48.106;-1.696;2022-12-18T07:37:22;51.57;;;23.57;;
22967;SDS011;11650;48.106;-1.696;2022-12-18T07:39:47;44.60;;;22.80;;
22967;SDS011;11650;48.106;-1.696;2022-12-18T07:42:13;48.13;;;21.77;;
22967;SDS011;11650;48.106;-1.696;2022-12-18T07:45:00;46.90;;;23.40;;
22967;SDS011;11650;48.106;-1.696;2022-12-18T07:47:27;46.63;;;21.53;;
22967;SDS011;11650;48.106;-1.696;2022-12-18T07:49:53;44.40;;;23.37;;
22967;SDS011;11650;48.106;-1.696;2022-12-18T07:52:19;46.07;;;24.07;;
22967;SDS011;11650;48.106;-1.696;2022-12-18T07:54:45;48.17;;;24.03;;
22967;SDS011;11650;48.106;-1.696;2022-12-18T07:57:10;51.17;;;25.10;;
22967;SDS011;11650;48.106;-1.696;2022-12-18T07:59:36;47.77;;;24.47;;
22967;SDS011;11650;48.106;-1.696;2022-12-18T08:02:02;51.33;;;25.10;;
22967;SDS011;11650;48.106;-1.696;2022-12-18T08:04:27;50.13;;;26.50;;
22967;SDS011;11650;48.106;-1.696;2022-12-18T08:06:53;51.60;;;24.33;;
22967;SDS011;11650;48.106;-1.696;2022-12-18T08:09:19;51.70;;;24.50;;
22967;SDS011;11650;48.106;-1.696;2022-12-18T08:11:44;52.83;;;24.93;;
22967;SDS011;11650;48.106;-1.696;2022-12-18T08:14:10;53.40;;;26.53;;
22967;SDS011;11650;48.106;-1.696;2022-12-18T08:16:36;53.07;;;25.93;;
22967;SDS011;11650;48.106;-1.696;2022-12-18T08:19:02;56.07;;;25.37;;
22967;SDS011;11650;48.106;-1.696;2022-12-18T08:21:28;52.90;;;24.93;;
22967;SDS011;11650;48.106;-1.696;2022-12-18T08:23:56;57.70;;;26.70;;
22967;SDS011;11650;48.106;-1.696;2022-12-18T08:26:24;61.83;;;26.10;;
22967;SDS011;11650;48.106;-1.696;2022-12-18T08:28:52;57.13;;;27.57;;
22967;SDS011;11650;48.106;-1.696;2022-12-18T08:31:20;53.43;;;25.40;;
22967;SDS011;11650;48.106;-1.696;2022-12-18T08:33:47;57.67;;;27.23;;
22967;SDS011;11650;48.106;-1.696;2022-12-18T08:36:14;56.23;;;27.33;;
22967;SDS011;11650;48.106;-1.696;2022-12-18T08:38:40;55.33;;;26.23;;
22967;SDS011;11650;48.106;-1.696;2022-12-18T08:41:07;55.43;;;27.27;;
22967;SDS011;11650;48.106;-1.696;2022-12-18T08:43:34;53.80;;;27.40;;
22967;SDS011;11650;48.106;-1.696;2022-12-18T08:46:19;56.53;;;27.77;;
22967;SDS011;11650;48.106;-1.696;2022-12-18T08:48:46;53.93;;;27.17;;
22967;SDS011;11650;48.106;-1.696;2022-12-18T08:51:12;63.30;;;28.70;;
22967;SDS011;11650;48.106;-1.696;2022-12-18T08:53:37;61.10;;;28.77;;
22967;SDS011;11650;48.106;-1.696;2022-12-18T08:56:03;59.73;;;26.97;;
22967;SDS011;11650;48.106;-1.696;2022-12-18T08:58:29;61.43;;;27.53;;
22967;SDS011;11650;48.106;-1.696;2022-12-18T09:01:05;58.87;;;26.50;;
22967;SDS011;11650;48.106;-1.696;2022-12-18T09:03:33;61.43;;;29.20;;
22967;SDS011;11650;48.106;-1.696;2022-12-18T09:05:58;63.03;;;29.07;;
22967;SDS011;11650;48.106;-1.696;2022-12-18T09:08:24;55.80;;;28.00;;
22967;SDS011;11650;48.106;-1.696;2022-12-18T09:10:53;57.27;;;28.20;;
22967;SDS011;11650;48.106;-1.696;2022-12-18T09:13:20;57.30;;;27.50;;
22967;SDS011;11650;48.106;-1.696;2022-12-18T09:15:47;57.60;;;28.73;;
22967;SDS011;11650;48.106;-1.696;2022-12-18T09:18:15;61.67;;;29.97;;
22967;SDS011;11650;48.106;-1.696;2022-12-18T09:20:42;62.37;;;30.17;;
22967;SDS011;11650;48.106;-1.696;2022-12-18T09:23:09;67.27;;;30.33;;
22967;SDS011;11650;48.106;-1.696;2022-12-18T09:25:35;61.83;;;30.03;;
22967;SDS011;11650;48.106;-1.696;2022-12-18T09:28:02;57.13;;;27.00;;
22967;SDS011;11650;48.106;-1.696;2022-12-18T09:30:29;63.53;;;29.90;;
22967;SDS011;11650;48.106;-1.696;2022-12-18T09:32:58;66.77;;;30.70;;
22967;SDS011;11650;48.106;-1.696;2022-12-18T09:35:24;65.00;;;31.27;;
22967;SDS011;11650;48.106;-1.696;2022-12-18T09:37:49;68.80;;;31.60;;
22967;SDS011;11650;48.106;-1.696;2022-12-18T09:40:19;71.70;;;31.40;;
22967;SDS011;11650;48.106;-1.696;2022-12-18T09:42:52;58.37;;;25.97;;
22967;SDS011;11650;48.106;-1.696;2022-12-18T09:45:22;62.37;;;28.33;;
22967;SDS011;11650;48.106;-1.696;2022-12-18T09:47:49;68.37;;;31.23;;
22967;SDS011;11650;48.106;-1.696;2022-12-18T09:50:24;64.53;;;30.07;;
22967;SDS011;11650;48.106;-1.696;2022-12-18T09:52:56;65.50;;;31.90;;
22967;SDS011;11650;48.106;-1.696;2022-12-18T09:55:31;71.27;;;31.70;;
22967;SDS011;11650;48.106;-1.696;2022-12-18T09:58:13;72.70;;;30.93;;
22967;SDS011;11650;48.106;-1.696;2022-12-18T10:01:22;74.73;;;32.03;;
22967;SDS011;11650;48.106;-1.696;2022-12-18T10:03:49;75.57;;;31.67;;
22967;SDS011;11650;48.106;-1.696;2022-12-18T10:08:58;75.97;;;32.00;;
22967;SDS011;11650;48.106;-1.696;2022-12-18T10:20:05;73.77;;;32.70;;
22967;SDS011;11650;48.106;-1.696;2022-12-18T10:22:57;70.80;;;32.17;;
22967;SDS011;11650;48.106;-1.696;2022-12-18T10:28:20;78.60;;;31.83;;
22967;SDS011;11650;48.106;-1.696;2022-12-18T10:30:48;80.10;;;32.43;;
22967;SDS011;11650;48.106;-1.696;2022-12-18T10:33:14;87.70;;;34.27;;
22967;SDS011;11650;48.106;-1.696;2022-12-18T10:35:42;77.03;;;33.17;;
22967;SDS011;11650;48.106;-1.696;2022-12-18T10:43:33;77.17;;;32.77;;
22967;SDS011;11650;48.106;-1.696;2022-12-18T10:46:01;81.93;;;33.00;;
22967;SDS011;11650;48.106;-1.696;2022-12-18T10:48:34;82.27;;;34.30;;
22967;SDS011;11650;48.106;-1.696;2022-12-18T10:51:05;79.07;;;30.63;;
22967;SDS011;11650;48.106;-1.696;2022-12-18T10:53:35;72.33;;;32.50;;
22967;SDS011;11650;48.106;-1.696;2022-12-18T10:56:03;83.77;;;33.50;;
22967;SDS011;11650;48.106;-1.696;2022-12-18T11:01:02;75.60;;;32.90;;
22967;SDS011;11650;48.106;-1.696;2022-12-18T11:03:40;77.37;;;34.83;;
22967;SDS011;11650;48.106;-1.696;2022-12-18T11:06:17;76.20;;;32.70;;
22967;SDS011;11650;48.106;-1.696;2022-12-18T11:11:31;71.33;;;31.80;;
22967;SDS011;11650;48.106;-1.696;2022-12-18T11:14:04;71.67;;;32.43;;
22967;SDS011;11650;48.106;-1.696;2022-12-18T11:16:43;70.77;;;31.93;;
22967;SDS011;11650;48.106;-1.696;2022-12-18T11:21:46;73.37;;;31.97;;
22967;SDS011;11650;48.106;-1.696;2022-12-18T11:26:51;67.47;;;31.63;;
22967;SDS011;11650;48.106;-1.696;2022-12-18T11:29:17;63.70;;;31.20;;
22967;SDS011;11650;48.106;-1.696;2022-12-18T11:31:48;71.53;;;31.40;;
22967;SDS011;11650;48.106;-1.696;2022-12-18T11:34:21;62.73;;;30.77;;
22967;SDS011;11650;48.106;-1.696;2022-12-18T11:36:52;67.00;;;31.83;;
22967;SDS011;11650;48.106;-1.696;2022-12-18T11:39:20;69.40;;;33.53;;
22967;SDS011;11650;48.106;-1.696;2022-12-18T11:41:54;63.40;;;31.57;;
22967;SDS011;11650;48.106;-1.696;2022-12-18T11:44:53;64.07;;;31.63;;
22967;SDS011;11650;48.106;-1.696;2022-12-18T11:47:25;58.60;;;28.97;;
22967;SDS011;11650;48.106;-1.696;2022-12-18T11:49:54;59.23;;;27.80;;
22967;SDS011;11650;48.106;-1.696;2022-12-18T11:52:26;65.07;;;31.37;;
22967;SDS011;11650;48.106;-1.696;2022-12-18T11:55:11;62.70;;;29.77;;
22967;SDS011;11650;48.106;-1.696;2022-12-18T11:57:50;63.90;;;30.73;;
22967;SDS011;11650;48.106;-1.696;2022-12-18T12:00:25;62.87;;;28.03;;
22967;SDS011;11650;48.106;-1.696;2022-12-18T12:14:36;55.60;;;29.40;;
22967;SDS011;11650;48.106;-1.696;2022-12-18T12:17:17;62.50;;;29.20;;
22967;SDS011;11650;48.106;-1.696;2022-12-18T12:25:48;52.77;;;26.50;;
22967;SDS011;11650;48.106;-1.696;2022-12-18T12:39:39;59.60;;;29.23;;
22967;SDS011;11650;48.106;-1.696;2022-12-18T12:42:51;60.20;;;30.90;;
22967;SDS011;11650;48.106;-1.696;2022-12-18T12:45:28;56.97;;;29.80;;
22967;SDS011;11650;48.106;-1.696;2022-12-18T12:48:05;54.67;;;29.50;;
22967;SDS011;11650;48.106;-1.696;2022-12-18T12:50:38;64.10;;;32.87;;
22967;SDS011;11650;48.106;-1.696;2022-12-18T12:53:06;61.43;;;31.33;;
22967;SDS011;11650;48.106;-1.696;2022-12-18T12:55:36;59.83;;;32.67;;
22967;SDS011;11650;48.106;-1.696;2022-12-18T13:01:13;64.00;;;32.73;;
22967;SDS011;11650;48.106;-1.696;2022-12-18T13:06:33;55.73;;;30.10;;
22967;SDS011;11650;48.106;-1.696;2022-12-18T13:09:14;60.10;;;31.53;;
22967;SDS011;11650;48.106;-1.696;2022-12-18T13:11:41;61.37;;;32.10;;
22967;SDS011;11650;48.106;-1.696;2022-12-18T13:14:32;62.20;;;32.57;;
22967;SDS011;11650;48.106;-1.696;2022-12-18T13:17:15;64.53;;;31.83;;
22967;SDS011;11650;48.106;-1.696;2022-12-18T13:19:47;60.20;;;31.47;;
22967;SDS011;11650;48.106;-1.696;2022-12-18T13:22:38;61.63;;;31.33;;
22967;SDS011;11650;48.106;-1.696;2022-12-18T13:28:09;57.17;;;31.57;;
22967;SDS011;11650;48.106;-1.696;2022-12-18T13:30:47;57.67;;;31.40;;
22967;SDS011;11650;48.106;-1.696;2022-12-18T13:41:04;63.00;;;32.47;;
22967;SDS011;11650;48.106;-1.696;2022-12-18T13:43:42;58.37;;;31.03;;
22967;SDS011;11650;48.106;-1.696;2022-12-18T13:46:23;64.27;;;32.03;;
22967;SDS011;11650;48.106;-1.696;2022-12-18T13:48:55;69.57;;;34.53;;
22967;SDS011;11650;48.106;-1.696;2022-12-18T13:51:24;62.80;;;33.20;;
22967;SDS011;11650;48.106;-1.696;2022-12-18T13:53:52;67.33;;;34.50;;
22967;SDS011;11650;48.106;-1.696;2022-12-18T13:56:42;69.90;;;34.43;;
22967;SDS011;11650;48.106;-1.696;2022-12-18T13:59:14;64.60;;;35.17;;
22967;SDS011;11650;48.106;-1.696;2022-12-18T14:04:29;70.40;;;35.33;;
22967;SDS011;11650;48.106;-1.696;2022-12-18T14:07:05;71.90;;;36.67;;
22967;SDS011;11650;48.106;-1.696;2022-12-18T14:09:34;67.70;;;34.47;;
22967;SDS011;11650;48.106;-1.696;2022-12-18T14:12:02;66.57;;;35.47;;
22967;SDS011;11650;48.106;-1.696;2022-12-18T14:14:47;65.50;;;35.63;;
22967;SDS011;11650;48.106;-1.696;2022-12-18T14:17:16;69.23;;;35.23;;
22967;SDS011;11650;48.106;-1.696;2022-12-18T14:19:44;65.27;;;34.87;;
22967;SDS011;11650;48.106;-1.696;2022-12-18T14:22:15;61.93;;;32.50;;
22967;SDS011;11650;48.106;-1.696;2022-12-18T14:24:46;64.23;;;34.60;;
22967;SDS011;11650;48.106;-1.696;2022-12-18T14:27:36;65.13;;;33.73;;
22967;SDS011;11650;48.106;-1.696;2022-12-18T14:30:15;58.87;;;31.30;;
22967;SDS011;11650;48.106;-1.696;2022-12-18T14:32:59;57.67;;;29.73;;
22967;SDS011;11650;48.106;-1.696;2022-12-18T14:35:38;61.77;;;31.43;;
22967;SDS011;11650;48.106;-1.696;2022-12-18T14:38:20;60.73;;;31.10;;
22967;SDS011;11650;48.106;-1.696;2022-12-18T14:41:17;61.20;;;32.00;;
22967;SDS011;11650;48.106;-1.696;2022-12-18T14:43:43;59.20;;;30.43;;
22967;SDS011;11650;48.106;-1.696;2022-12-18T14:48:57;61.37;;;31.60;;
22967;SDS011;11650;48.106;-1.696;2022-12-18T14:51:24;62.00;;;32.80;;
22967;SDS011;11650;48.106;-1.696;2022-12-18T14:53:55;59.80;;;32.53;;
22967;SDS011;11650;48.106;-1.696;2022-12-18T14:56:27;62.33;;;34.57;;
22967;SDS011;11650;48.106;-1.696;2022-12-18T15:01:44;59.43;;;32.53;;
22967;SDS011;11650;48.106;-1.696;2022-12-18T15:07:02;60.73;;;30.10;;
22967;SDS011;11650;48.106;-1.696;2022-12-18T15:09:31;61.40;;;32.37;;
22967;SDS011;11650;48.106;-1.696;2022-12-18T15:11:57;53.23;;;27.53;;
22967;SDS011;11650;48.106;-1.696;2022-12-18T15:14:35;56.73;;;30.63;;
22967;SDS011;11650;48.106;-1.696;2022-12-18T15:17:05;57.37;;;30.77;;
22967;SDS011;11650;48.106;-1.696;2022-12-18T15:19:53;55.97;;;30.50;;
22967;SDS011;11650;48.106;-1.696;2022-12-18T15:22:34;55.87;;;30.33;;
22967;SDS011;11650;48.106;-1.696;2022-12-18T15:25:01;57.93;;;30.27;;
22967;SDS011;11650;48.106;-1.696;2022-12-18T15:27:31;54.13;;;30.13;;
22967;SDS011;11650;48.106;-1.696;2022-12-18T15:32:33;57.67;;;30.87;;
22967;SDS011;11650;48.106;-1.696;2022-12-18T15:35:19;54.80;;;30.90;;
22967;SDS011;11650;48.106;-1.696;2022-12-18T15:37:47;50.60;;;28.47;;
22967;SDS011;11650;48.106;-1.696;2022-12-18T15:40:23;44.77;;;28.03;;
22967;SDS011;11650;48.106;-1.696;2022-12-18T15:42:50;50.30;;;27.13;;
22967;SDS011;11650;48.106;-1.696;2022-12-18T15:45:36;49.00;;;27.07;;
22967;SDS011;11650;48.106;-1.696;2022-12-18T15:48:04;49.27;;;27.13;;
22967;SDS011;11650;48.106;-1.696;2022-12-18T15:50:42;43.00;;;25.03;;
22967;SDS011;11650;48.106;-1.696;2022-12-18T15:53:08;44.17;;;25.03;;
22967;SDS011;11650;48.106;-1.696;2022-12-18T15:55:34;43.80;;;24.53;;
22967;SDS011;11650;48.106;-1.696;2022-12-18T15:58:38;42.67;;;24.63;;
22967;SDS011;11650;48.106;-1.696;2022-12-18T16:01:07;38.33;;;20.63;;
22967;SDS011;11650;48.106;-1.696;2022-12-18T16:03:35;40.73;;;22.90;;
22967;SDS011;11650;48.106;-1.696;2022-12-18T16:06:00;34.50;;;21.13;;
22967;SDS011;11650;48.106;-1.696;2022-12-18T16:08:27;31.93;;;19.53;;
22967;SDS011;11650;48.106;-1.696;2022-12-18T16:10:54;38.57;;;22.23;;
22967;SDS011;11650;48.106;-1.696;2022-12-18T16:13:20;30.63;;;19.83;;
22967;SDS011;11650;48.106;-1.696;2022-12-18T16:15:46;36.07;;;19.17;;
22967;SDS011;11650;48.106;-1.696;2022-12-18T16:18:12;34.40;;;20.63;;
22967;SDS011;11650;48.106;-1.696;2022-12-18T16:20:38;34.97;;;21.27;;
22967;SDS011;11650;48.106;-1.696;2022-12-18T16:23:04;31.40;;;17.27;;
22967;SDS011;11650;48.106;-1.696;2022-12-18T16:25:29;28.17;;;15.87;;
22967;SDS011;11650;48.106;-1.696;2022-12-18T16:27:55;33.30;;;19.57;;
22967;SDS011;11650;48.106;-1.696;2022-12-18T16:30:22;34.17;;;20.20;;